sensor_id;sensor_type;location;lat;lon;timestamp;temperature;humidity
4411;DHT22;2218;51.408;7.208;2022-10-22T00:02:14;20.60;56.60
4411;DHT22;2218;51.408;7.208;2022-10-22T00:04:45;20.60;56.60
4411;DHT22;2218;51.408;7.208;2022-10-22T00:07:12;20.60;56.60
4411;DHT22;2218;51.408;7.208;2022-10-22T00:09:39;20.60;56.50
4411;DHT22;2218;51.408;7.208;2022-10-22T00:12:06;20.60;56.50
4411;DHT22;2218;51.408;7.208;2022-10-22T00:14:33;20.60;56.50
4411;DHT22;2218;51.408;7.208;2022-10-22T00:17:02;20.60;56.50
4411;DHT22;2218;51.408;7.208;2022-10-22T00:19:29;20.60;56.50
4411;DHT22;2218;51.408;7.208;2022-10-22T00:21:56;20.60;56.50
4411;DHT22;2218;51.408;7.208;2022-10-22T00:24:23;20.60;56.50
4411;DHT22;2218;51.408;7.208;2022-10-22T00:26:50;20.60;56.50
4411;DHT22;2218;51.408;7.208;2022-10-22T00:29:17;20.60;56.50
4411;DHT22;2218;51.408;7.208;2022-10-22T00:31:45;20.60;56.50
4411;DHT22;2218;51.408;7.208;2022-10-22T00:34:16;20.60;56.50
4411;DHT22;2218;51.408;7.208;2022-10-22T00:36:43;20.60;56.50
4411;DHT22;2218;51.408;7.208;2022-10-22T00:39:10;20.60;56.50
4411;DHT22;2218;51.408;7.208;2022-10-22T00:41:40;20.60;56.50
4411;DHT22;2218;51.408;7.208;2022-10-22T00:47:34;20.60;56.50
4411;DHT22;2218;51.408;7.208;2022-10-22T00:50:09;20.60;56.50
4411;DHT22;2218;51.408;7.208;2022-10-22T00:52:38;20.60;56.50
4411;DHT22;2218;51.408;7.208;2022-10-22T00:55:06;20.50;56.40
4411;DHT22;2218;51.408;7.208;2022-10-22T00:57:34;20.50;56.40
4411;DHT22;2218;51.408;7.208;2022-10-22T01:00:04;20.60;56.50
4411;DHT22;2218;51.408;7.208;2022-10-22T01:02:32;20.50;56.40
4411;DHT22;2218;51.408;7.208;2022-10-22T01:04:59;20.50;56.30
4411;DHT22;2218;51.408;7.208;2022-10-22T01:07:28;20.60;56.50
4411;DHT22;2218;51.408;7.208;2022-10-22T01:10:02;20.50;56.40
4411;DHT22;2218;51.408;7.208;2022-10-22T01:12:41;20.50;56.40
4411;DHT22;2218;51.408;7.208;2022-10-22T01:15:22;20.50;56.40
4411;DHT22;2218;51.408;7.208;2022-10-22T01:17:58;20.50;56.40
4411;DHT22;2218;51.408;7.208;2022-10-22T01:20:56;20.50;56.30
4411;DHT22;2218;51.408;7.208;2022-10-22T01:23:58;20.50;56.30
4411;DHT22;2218;51.408;7.208;2022-10-22T01:26:49;20.50;56.30
4411;DHT22;2218;51.408;7.208;2022-10-22T01:29:29;20.50;56.30
4411;DHT22;2218;51.408;7.208;2022-10-22T01:32:06;20.50;56.40
4411;DHT22;2218;51.408;7.208;2022-10-22T01:34:37;20.50;56.40
4411;DHT22;2218;51.408;7.208;2022-10-22T01:37:09;20.50;56.40
4411;DHT22;2218;51.408;7.208;2022-10-22T01:39:41;20.50;56.30
4411;DHT22;2218;51.408;7.208;2022-10-22T01:42:11;20.50;56.30
4411;DHT22;2218;51.408;7.208;2022-10-22T01:44:40;20.50;56.30
4411;DHT22;2218;51.408;7.208;2022-10-22T01:47:14;20.50;56.40
4411;DHT22;2218;51.408;7.208;2022-10-22T01:50:03;20.50;56.30
4411;DHT22;2218;51.408;7.208;2022-10-22T01:52:51;20.50;56.30
4411;DHT22;2218;51.408;7.208;2022-10-22T01:55:28;20.50;56.30
4411;DHT22;2218;51.408;7.208;2022-10-22T01:58:10;20.50;56.30
4411;DHT22;2218;51.408;7.208;2022-10-22T02:00:49;20.50;56.30
4411;DHT22;2218;51.408;7.208;2022-10-22T02:03:25;20.50;56.30
4411;DHT22;2218;51.408;7.208;2022-10-22T02:06:02;20.50;56.30
4411;DHT22;2218;51.408;7.208;2022-10-22T02:08:35;20.50;56.30
4411;DHT22;2218;51.408;7.208;2022-10-22T02:11:04;20.50;56.40
4411;DHT22;2218;51.408;7.208;2022-10-22T02:13:35;20.50;56.40
4411;DHT22;2218;51.408;7.208;2022-10-22T02:16:10;20.50;56.30
4411;DHT22;2218;51.408;7.208;2022-10-22T02:18:44;20.50;56.30
4411;DHT22;2218;51.408;7.208;2022-10-22T02:21:14;20.50;56.30
4411;DHT22;2218;51.408;7.208;2022-10-22T02:23:42;20.50;56.20
4411;DHT22;2218;51.408;7.208;2022-10-22T02:26:14;20.60;56.40
4411;DHT22;2218;51.408;7.208;2022-10-22T02:28:54;20.60;56.40
4411;DHT22;2218;51.408;7.208;2022-10-22T02:31:29;20.60;56.40
4411;DHT22;2218;51.408;7.208;2022-10-22T02:34:04;20.60;56.40
4411;DHT22;2218;51.408;7.208;2022-10-22T02:36:35;20.60;56.40
4411;DHT22;2218;51.408;7.208;2022-10-22T02:39:05;20.60;56.40
4411;DHT22;2218;51.408;7.208;2022-10-22T02:41:34;20.60;56.40
4411;DHT22;2218;51.408;7.208;2022-10-22T02:44:07;20.60;56.30
4411;DHT22;2218;51.408;7.208;2022-10-22T02:46:37;20.60;56.30
4411;DHT22;2218;51.408;7.208;2022-10-22T02:49:06;20.60;56.40
4411;DHT22;2218;51.408;7.208;2022-10-22T02:51:33;20.60;56.30
4411;DHT22;2218;51.408;7.208;2022-10-22T02:54:00;20.60;56.40
4411;DHT22;2218;51.408;7.208;2022-10-22T02:56:27;20.60;56.30
4411;DHT22;2218;51.408;7.208;2022-10-22T02:58:54;20.60;56.30
4411;DHT22;2218;51.408;7.208;2022-10-22T03:01:21;20.60;56.40
4411;DHT22;2218;51.408;7.208;2022-10-22T03:03:50;20.60;56.40
4411;DHT22;2218;51.408;7.208;2022-10-22T03:06:17;20.60;56.40
4411;DHT22;2218;51.408;7.208;2022-10-22T03:08:44;20.60;56.40
4411;DHT22;2218;51.408;7.208;2022-10-22T03:11:12;20.60;56.40
4411;DHT22;2218;51.408;7.208;2022-10-22T03:13:38;20.60;56.40
4411;DHT22;2218;51.408;7.208;2022-10-22T03:16:06;20.60;56.40
4411;DHT22;2218;51.408;7.208;2022-10-22T03:18:33;20.60;56.30
4411;DHT22;2218;51.408;7.208;2022-10-22T03:21:07;20.60;56.30
4411;DHT22;2218;51.408;7.208;2022-10-22T03:23:38;20.60;56.30
4411;DHT22;2218;51.408;7.208;2022-10-22T03:26:08;20.60;56.30
4411;DHT22;2218;51.408;7.208;2022-10-22T03:28:36;20.60;56.30
4411;DHT22;2218;51.408;7.208;2022-10-22T03:31:05;20.60;56.30
4411;DHT22;2218;51.408;7.208;2022-10-22T03:33:32;20.60;56.30
4411;DHT22;2218;51.408;7.208;2022-10-22T03:35:59;20.60;56.20
4411;DHT22;2218;51.408;7.208;2022-10-22T03:38:28;20.60;56.30
4411;DHT22;2218;51.408;7.208;2022-10-22T03:40:56;20.60;56.30
4411;DHT22;2218;51.408;7.208;2022-10-22T03:43:24;20.60;56.20
4411;DHT22;2218;51.408;7.208;2022-10-22T03:45:51;20.60;56.20
4411;DHT22;2218;51.408;7.208;2022-10-22T03:48:18;20.60;56.20
4411;DHT22;2218;51.408;7.208;2022-10-22T03:50:45;20.60;56.20
4411;DHT22;2218;51.408;7.208;2022-10-22T03:53:12;20.60;56.30
4411;DHT22;2218;51.408;7.208;2022-10-22T03:55:40;20.60;56.30
4411;DHT22;2218;51.408;7.208;2022-10-22T03:58:08;20.60;56.20
4411;DHT22;2218;51.408;7.208;2022-10-22T04:00:35;20.60;56.20
4411;DHT22;2218;51.408;7.208;2022-10-22T04:03:02;20.60;56.20
4411;DHT22;2218;51.408;7.208;2022-10-22T04:05:30;20.60;56.20
4411;DHT22;2218;51.408;7.208;2022-10-22T04:07:57;20.60;56.20
4411;DHT22;2218;51.408;7.208;2022-10-22T04:10:25;20.60;56.20
4411;DHT22;2218;51.408;7.208;2022-10-22T04:12:53;20.60;56.20
4411;DHT22;2218;51.408;7.208;2022-10-22T04:15:20;20.60;56.30
4411;DHT22;2218;51.408;7.208;2022-10-22T04:17:46;20.60;56.80
4411;DHT22;2218;51.408;7.208;2022-10-22T04:20:13;20.60;56.30
4411;DHT22;2218;51.408;7.208;2022-10-22T04:22:40;20.60;56.20
4411;DHT22;2218;51.408;7.208;2022-10-22T04:25:08;20.60;56.30
4411;DHT22;2218;51.408;7.208;2022-10-22T04:27:35;20.60;56.30
4411;DHT22;2218;51.408;7.208;2022-10-22T04:30:05;20.60;56.30
4411;DHT22;2218;51.408;7.208;2022-10-22T04:32:32;20.60;56.20
4411;DHT22;2218;51.408;7.208;2022-10-22T04:34:59;20.60;56.30
4411;DHT22;2218;51.408;7.208;2022-10-22T04:37:26;20.60;56.30
4411;DHT22;2218;51.408;7.208;2022-10-22T04:39:53;20.60;56.30
4411;DHT22;2218;51.408;7.208;2022-10-22T04:42:20;20.60;56.30
4411;DHT22;2218;51.408;7.208;2022-10-22T04:44:47;20.60;56.30
4411;DHT22;2218;51.408;7.208;2022-10-22T04:47:15;20.50;56.20
4411;DHT22;2218;51.408;7.208;2022-10-22T04:49:42;20.60;56.30
4411;DHT22;2218;51.408;7.208;2022-10-22T04:52:09;20.60;56.30
4411;DHT22;2218;51.408;7.208;2022-10-22T04:54:37;20.50;56.20
4411;DHT22;2218;51.408;7.208;2022-10-22T04:57:03;20.60;56.30
4411;DHT22;2218;51.408;7.208;2022-10-22T04:59:30;20.60;56.30
4411;DHT22;2218;51.408;7.208;2022-10-22T05:01:57;20.60;56.30
4411;DHT22;2218;51.408;7.208;2022-10-22T05:04:25;20.50;56.20
4411;DHT22;2218;51.408;7.208;2022-10-22T05:06:52;20.60;56.20
4411;DHT22;2218;51.408;7.208;2022-10-22T05:09:20;20.60;56.20
4411;DHT22;2218;51.408;7.208;2022-10-22T05:11:48;20.60;56.30
4411;DHT22;2218;51.408;7.208;2022-10-22T05:14:18;20.50;56.20
4411;DHT22;2218;51.408;7.208;2022-10-22T05:16:46;20.50;56.70
4411;DHT22;2218;51.408;7.208;2022-10-22T05:19:16;20.60;56.30
4411;DHT22;2218;51.408;7.208;2022-10-22T05:21:47;20.50;56.20
4411;DHT22;2218;51.408;7.208;2022-10-22T05:24:14;20.60;56.30
4411;DHT22;2218;51.408;7.208;2022-10-22T05:26:41;20.60;56.30
4411;DHT22;2218;51.408;7.208;2022-10-22T05:29:08;20.60;56.30
4411;DHT22;2218;51.408;7.208;2022-10-22T05:31:35;20.50;56.20
4411;DHT22;2218;51.408;7.208;2022-10-22T05:34:03;20.50;56.20
4411;DHT22;2218;51.408;7.208;2022-10-22T05:36:30;20.50;56.20
4411;DHT22;2218;51.408;7.208;2022-10-22T05:38:58;20.50;56.20
4411;DHT22;2218;51.408;7.208;2022-10-22T05:41:26;20.50;56.20
4411;DHT22;2218;51.408;7.208;2022-10-22T05:43:55;20.50;56.20
4411;DHT22;2218;51.408;7.208;2022-10-22T05:46:24;20.50;56.20
4411;DHT22;2218;51.408;7.208;2022-10-22T05:48:54;20.50;56.20
4411;DHT22;2218;51.408;7.208;2022-10-22T05:51:22;20.50;56.20
4411;DHT22;2218;51.408;7.208;2022-10-22T05:53:52;20.50;56.20
4411;DHT22;2218;51.408;7.208;2022-10-22T05:56:21;20.60;56.30
4411;DHT22;2218;51.408;7.208;2022-10-22T05:58:48;20.50;56.20
4411;DHT22;2218;51.408;7.208;2022-10-22T06:01:17;20.50;56.20
4411;DHT22;2218;51.408;7.208;2022-10-22T06:03:47;20.50;56.20
4411;DHT22;2218;51.408;7.208;2022-10-22T06:06:18;20.50;56.10
4411;DHT22;2218;51.408;7.208;2022-10-22T06:08:48;20.50;56.20
4411;DHT22;2218;51.408;7.208;2022-10-22T06:11:17;20.50;56.20
4411;DHT22;2218;51.408;7.208;2022-10-22T06:13:47;20.50;56.20
4411;DHT22;2218;51.408;7.208;2022-10-22T06:16:15;20.50;56.20
4411;DHT22;2218;51.408;7.208;2022-10-22T06:18:42;20.50;56.20
4411;DHT22;2218;51.408;7.208;2022-10-22T06:21:10;20.50;56.20
4411;DHT22;2218;51.408;7.208;2022-10-22T06:23:39;20.50;56.20
4411;DHT22;2218;51.408;7.208;2022-10-22T06:26:07;20.50;56.20
4411;DHT22;2218;51.408;7.208;2022-10-22T06:28:36;20.50;56.20
4411;DHT22;2218;51.408;7.208;2022-10-22T06:31:05;20.50;56.10
4411;DHT22;2218;51.408;7.208;2022-10-22T06:33:32;20.60;56.20
4411;DHT22;2218;51.408;7.208;2022-10-22T06:36:07;20.60;56.20
4411;DHT22;2218;51.408;7.208;2022-10-22T06:38:35;20.60;56.20
4411;DHT22;2218;51.408;7.208;2022-10-22T06:41:03;20.60;56.10
4411;DHT22;2218;51.408;7.208;2022-10-22T06:43:31;20.60;56.10
4411;DHT22;2218;51.408;7.208;2022-10-22T06:45:59;20.60;56.60
4411;DHT22;2218;51.408;7.208;2022-10-22T06:48:28;20.60;56.10
4411;DHT22;2218;51.408;7.208;2022-10-22T06:51:00;20.60;56.10
4411;DHT22;2218;51.408;7.208;2022-10-22T06:53:27;20.70;56.00
4411;DHT22;2218;51.408;7.208;2022-10-22T06:55:54;20.70;56.00
4411;DHT22;2218;51.408;7.208;2022-10-22T06:58:21;20.70;56.00
4411;DHT22;2218;51.408;7.208;2022-10-22T07:00:48;20.70;56.00
4411;DHT22;2218;51.408;7.208;2022-10-22T07:03:15;20.80;56.10
4411;DHT22;2218;51.408;7.208;2022-10-22T07:05:43;20.80;56.00
4411;DHT22;2218;51.408;7.208;2022-10-22T07:08:10;20.80;56.00
4411;DHT22;2218;51.408;7.208;2022-10-22T07:10:37;20.90;56.00
4411;DHT22;2218;51.408;7.208;2022-10-22T07:13:04;20.90;56.50
4411;DHT22;2218;51.408;7.208;2022-10-22T07:15:31;20.90;55.90
4411;DHT22;2218;51.408;7.208;2022-10-22T07:17:58;20.90;56.00
4411;DHT22;2218;51.408;7.208;2022-10-22T07:20:24;20.90;56.00
4411;DHT22;2218;51.408;7.208;2022-10-22T07:22:53;20.90;56.00
4411;DHT22;2218;51.408;7.208;2022-10-22T07:25:19;20.80;55.90
4411;DHT22;2218;51.408;7.208;2022-10-22T07:27:46;20.80;56.00
4411;DHT22;2218;51.408;7.208;2022-10-22T07:30:13;20.80;56.00
4411;DHT22;2218;51.408;7.208;2022-10-22T07:32:40;20.90;56.10
4411;DHT22;2218;51.408;7.208;2022-10-22T07:35:08;20.90;56.00
4411;DHT22;2218;51.408;7.208;2022-10-22T07:37:35;20.90;55.90
4411;DHT22;2218;51.408;7.208;2022-10-22T07:40:04;20.90;56.00
4411;DHT22;2218;51.408;7.208;2022-10-22T07:42:31;20.90;55.90
4411;DHT22;2218;51.408;7.208;2022-10-22T07:44:58;20.90;55.90
4411;DHT22;2218;51.408;7.208;2022-10-22T07:47:25;20.90;55.90
4411;DHT22;2218;51.408;7.208;2022-10-22T07:49:52;20.90;55.90
4411;DHT22;2218;51.408;7.208;2022-10-22T07:52:19;20.90;55.90
4411;DHT22;2218;51.408;7.208;2022-10-22T07:54:46;21.00;56.00
4411;DHT22;2218;51.408;7.208;2022-10-22T07:57:14;21.00;56.00
4411;DHT22;2218;51.408;7.208;2022-10-22T07:59:41;21.00;56.00
4411;DHT22;2218;51.408;7.208;2022-10-22T08:02:08;21.00;56.00
4411;DHT22;2218;51.408;7.208;2022-10-22T08:04:36;21.00;56.00
4411;DHT22;2218;51.408;7.208;2022-10-22T08:07:03;21.00;56.00
4411;DHT22;2218;51.408;7.208;2022-10-22T08:09:30;21.00;56.00
4411;DHT22;2218;51.408;7.208;2022-10-22T08:11:57;21.00;55.90
4411;DHT22;2218;51.408;7.208;2022-10-22T08:14:25;21.00;55.90
4411;DHT22;2218;51.408;7.208;2022-10-22T08:16:52;21.00;55.90
4411;DHT22;2218;51.408;7.208;2022-10-22T08:19:19;21.00;55.90
4411;DHT22;2218;51.408;7.208;2022-10-22T08:21:46;21.00;55.90
4411;DHT22;2218;51.408;7.208;2022-10-22T08:24:14;21.00;55.90
4411;DHT22;2218;51.408;7.208;2022-10-22T08:26:41;21.00;55.90
4411;DHT22;2218;51.408;7.208;2022-10-22T08:29:08;21.00;55.90
4411;DHT22;2218;51.408;7.208;2022-10-22T08:31:36;21.00;55.90
4411;DHT22;2218;51.408;7.208;2022-10-22T08:34:03;21.00;55.90
4411;DHT22;2218;51.408;7.208;2022-10-22T08:36:32;21.00;55.90
4411;DHT22;2218;51.408;7.208;2022-10-22T08:38:59;21.00;55.90
4411;DHT22;2218;51.408;7.208;2022-10-22T08:41:26;21.00;55.90
4411;DHT22;2218;51.408;7.208;2022-10-22T08:44:41;21.00;55.90
4411;DHT22;2218;51.408;7.208;2022-10-22T08:47:52;21.00;55.90
4411;DHT22;2218;51.408;7.208;2022-10-22T08:50:36;21.00;56.00
4411;DHT22;2218;51.408;7.208;2022-10-22T08:53:12;21.00;56.00
4411;DHT22;2218;51.408;7.208;2022-10-22T08:55:41;21.00;56.00
4411;DHT22;2218;51.408;7.208;2022-10-22T08:58:17;21.00;56.00
4411;DHT22;2218;51.408;7.208;2022-10-22T09:00:57;21.00;56.00
4411;DHT22;2218;51.408;7.208;2022-10-22T09:03:34;21.00;56.00
4411;DHT22;2218;51.408;7.208;2022-10-22T09:06:10;21.00;56.00
4411;DHT22;2218;51.408;7.208;2022-10-22T09:08:42;21.00;56.00
4411;DHT22;2218;51.408;7.208;2022-10-22T09:11:22;21.00;56.00
4411;DHT22;2218;51.408;7.208;2022-10-22T09:13:53;20.90;55.90
4411;DHT22;2218;51.408;7.208;2022-10-22T09:16:26;21.00;55.90
4411;DHT22;2218;51.408;7.208;2022-10-22T09:19:09;20.90;55.80
4411;DHT22;2218;51.408;7.208;2022-10-22T09:21:50;20.90;55.80
4411;DHT22;2218;51.408;7.208;2022-10-22T09:24:29;20.90;55.80
4411;DHT22;2218;51.408;7.208;2022-10-22T09:27:10;20.90;55.80
4411;DHT22;2218;51.408;7.208;2022-10-22T09:29:39;20.90;55.80
4411;DHT22;2218;51.408;7.208;2022-10-22T09:32:06;20.90;55.80
4411;DHT22;2218;51.408;7.208;2022-10-22T09:34:34;20.90;55.80
4411;DHT22;2218;51.408;7.208;2022-10-22T09:37:02;20.90;55.80
4411;DHT22;2218;51.408;7.208;2022-10-22T09:39:32;20.90;55.80
4411;DHT22;2218;51.408;7.208;2022-10-22T09:42:00;20.90;55.80
4411;DHT22;2218;51.408;7.208;2022-10-22T09:44:27;20.90;55.80
4411;DHT22;2218;51.408;7.208;2022-10-22T09:46:54;20.90;55.80
4411;DHT22;2218;51.408;7.208;2022-10-22T09:49:23;20.90;55.80
4411;DHT22;2218;51.408;7.208;2022-10-22T09:51:55;20.90;55.70
4411;DHT22;2218;51.408;7.208;2022-10-22T09:54:24;21.00;55.80
4411;DHT22;2218;51.408;7.208;2022-10-22T09:56:55;20.90;55.70
4411;DHT22;2218;51.408;7.208;2022-10-22T09:59:27;20.90;55.70
4411;DHT22;2218;51.408;7.208;2022-10-22T10:02:05;20.90;55.70
4411;DHT22;2218;51.408;7.208;2022-10-22T10:04:40;20.90;55.70
4411;DHT22;2218;51.408;7.208;2022-10-22T10:07:17;20.90;55.70
4411;DHT22;2218;51.408;7.208;2022-10-22T10:09:46;20.90;55.70
4411;DHT22;2218;51.408;7.208;2022-10-22T10:12:21;20.90;55.70
4411;DHT22;2218;51.408;7.208;2022-10-22T10:15:05;20.90;55.70
4411;DHT22;2218;51.408;7.208;2022-10-22T10:17:48;20.90;55.70
4411;DHT22;2218;51.408;7.208;2022-10-22T10:20:32;20.90;55.70
4411;DHT22;2218;51.408;7.208;2022-10-22T10:23:09;20.90;55.70
4411;DHT22;2218;51.408;7.208;2022-10-22T10:25:47;20.90;55.70
4411;DHT22;2218;51.408;7.208;2022-10-22T10:28:39;20.90;55.60
4411;DHT22;2218;51.408;7.208;2022-10-22T10:31:22;20.90;55.60
4411;DHT22;2218;51.408;7.208;2022-10-22T10:34:05;20.90;55.60
4411;DHT22;2218;51.408;7.208;2022-10-22T10:36:45;20.90;55.60
4411;DHT22;2218;51.408;7.208;2022-10-22T10:39:24;20.90;55.60
4411;DHT22;2218;51.408;7.208;2022-10-22T10:42:05;20.90;55.60
4411;DHT22;2218;51.408;7.208;2022-10-22T10:44:55;20.90;55.60
4411;DHT22;2218;51.408;7.208;2022-10-22T10:47:47;20.90;55.60
4411;DHT22;2218;51.408;7.208;2022-10-22T10:50:43;20.90;55.60
4411;DHT22;2218;51.408;7.208;2022-10-22T10:53:41;20.90;55.60
4411;DHT22;2218;51.408;7.208;2022-10-22T10:56:31;20.90;55.60
4411;DHT22;2218;51.408;7.208;2022-10-22T10:59:13;20.90;55.60
4411;DHT22;2218;51.408;7.208;2022-10-22T11:01:58;20.90;55.50
4411;DHT22;2218;51.408;7.208;2022-10-22T11:04:58;20.90;55.50
4411;DHT22;2218;51.408;7.208;2022-10-22T11:07:40;20.90;55.50
4411;DHT22;2218;51.408;7.208;2022-10-22T11:10:19;20.90;55.50
4411;DHT22;2218;51.408;7.208;2022-10-22T11:12:56;20.90;55.50
4411;DHT22;2218;51.408;7.208;2022-10-22T11:15:31;20.90;55.50
4411;DHT22;2218;51.408;7.208;2022-10-22T11:18:04;20.90;55.50
4411;DHT22;2218;51.408;7.208;2022-10-22T11:20:56;20.90;55.40
4411;DHT22;2218;51.408;7.208;2022-10-22T11:23:38;20.90;55.50
4411;DHT22;2218;51.408;7.208;2022-10-22T11:26:16;20.90;55.40
4411;DHT22;2218;51.408;7.208;2022-10-22T11:28:54;20.90;55.40
4411;DHT22;2218;51.408;7.208;2022-10-22T11:31:25;20.90;55.40
4411;DHT22;2218;51.408;7.208;2022-10-22T11:33:56;20.90;55.40
4411;DHT22;2218;51.408;7.208;2022-10-22T11:36:30;20.90;55.30
4411;DHT22;2218;51.408;7.208;2022-10-22T11:39:02;20.90;55.30
4411;DHT22;2218;51.408;7.208;2022-10-22T11:41:31;20.90;55.30
4411;DHT22;2218;51.408;7.208;2022-10-22T11:44:20;20.90;55.30
4411;DHT22;2218;51.408;7.208;2022-10-22T11:46:55;20.90;55.30
4411;DHT22;2218;51.408;7.208;2022-10-22T11:49:25;20.90;55.30
4411;DHT22;2218;51.408;7.208;2022-10-22T11:52:20;20.90;55.30
4411;DHT22;2218;51.408;7.208;2022-10-22T11:54:53;20.90;55.30
4411;DHT22;2218;51.408;7.208;2022-10-22T11:57:26;20.90;55.20
4411;DHT22;2218;51.408;7.208;2022-10-22T12:00:08;20.90;55.20
4411;DHT22;2218;51.408;7.208;2022-10-22T12:03:02;20.90;55.20
4411;DHT22;2218;51.408;7.208;2022-10-22T12:05:40;20.90;55.20
4411;DHT22;2218;51.408;7.208;2022-10-22T12:08:24;20.90;55.10
4411;DHT22;2218;51.408;7.208;2022-10-22T12:11:13;20.90;55.20
4411;DHT22;2218;51.408;7.208;2022-10-22T12:14:02;20.90;55.10
4411;DHT22;2218;51.408;7.208;2022-10-22T12:16:50;20.90;55.10
4411;DHT22;2218;51.408;7.208;2022-10-22T12:19:27;20.90;55.10
4411;DHT22;2218;51.408;7.208;2022-10-22T12:21:58;20.90;55.10
4411;DHT22;2218;51.408;7.208;2022-10-22T12:24:39;20.90;55.10
4411;DHT22;2218;51.408;7.208;2022-10-22T12:27:18;20.90;55.10
4411;DHT22;2218;51.408;7.208;2022-10-22T12:29:47;20.90;55.10
4411;DHT22;2218;51.408;7.208;2022-10-22T12:32:15;20.90;55.10
4411;DHT22;2218;51.408;7.208;2022-10-22T12:34:47;20.90;55.10
4411;DHT22;2218;51.408;7.208;2022-10-22T12:37:16;20.90;55.10
4411;DHT22;2218;51.408;7.208;2022-10-22T12:39:44;20.90;55.00
4411;DHT22;2218;51.408;7.208;2022-10-22T12:42:13;20.90;55.00
4411;DHT22;2218;51.408;7.208;2022-10-22T12:44:42;20.90;55.00
4411;DHT22;2218;51.408;7.208;2022-10-22T12:47:16;20.90;54.90
4411;DHT22;2218;51.408;7.208;2022-10-22T12:49:46;20.90;54.90
4411;DHT22;2218;51.408;7.208;2022-10-22T12:52:17;20.90;54.90
4411;DHT22;2218;51.408;7.208;2022-10-22T12:54:49;20.90;54.90
4411;DHT22;2218;51.408;7.208;2022-10-22T12:57:19;20.90;54.80
4411;DHT22;2218;51.408;7.208;2022-10-22T12:59:50;20.90;54.80
4411;DHT22;2218;51.408;7.208;2022-10-22T13:02:21;20.90;54.90
4411;DHT22;2218;51.408;7.208;2022-10-22T13:05:13;20.90;54.80
4411;DHT22;2218;51.408;7.208;2022-10-22T13:07:47;20.90;54.80
4411;DHT22;2218;51.408;7.208;2022-10-22T13:10:23;20.90;54.80
4411;DHT22;2218;51.408;7.208;2022-10-22T13:12:54;20.90;54.80
4411;DHT22;2218;51.408;7.208;2022-10-22T13:15:37;20.90;54.80
4411;DHT22;2218;51.408;7.208;2022-10-22T13:18:15;20.90;54.70
4411;DHT22;2218;51.408;7.208;2022-10-22T13:20:52;20.90;54.70
4411;DHT22;2218;51.408;7.208;2022-10-22T13:23:22;20.90;54.70
4411;DHT22;2218;51.408;7.208;2022-10-22T13:25:59;20.90;54.70
4411;DHT22;2218;51.408;7.208;2022-10-22T13:28:29;20.90;54.70
4411;DHT22;2218;51.408;7.208;2022-10-22T13:31:00;20.90;54.70
4411;DHT22;2218;51.408;7.208;2022-10-22T13:33:37;20.90;55.20
4411;DHT22;2218;51.408;7.208;2022-10-22T13:36:09;20.90;54.70
4411;DHT22;2218;51.408;7.208;2022-10-22T13:38:40;20.90;54.60
4411;DHT22;2218;51.408;7.208;2022-10-22T13:41:18;20.90;54.60
4411;DHT22;2218;51.408;7.208;2022-10-22T13:43:47;20.90;54.60
4411;DHT22;2218;51.408;7.208;2022-10-22T13:46:14;20.90;54.60
4411;DHT22;2218;51.408;7.208;2022-10-22T13:48:43;20.90;54.50
4411;DHT22;2218;51.408;7.208;2022-10-22T13:51:14;20.90;54.60
4411;DHT22;2218;51.408;7.208;2022-10-22T13:53:44;20.90;54.50
4411;DHT22;2218;51.408;7.208;2022-10-22T13:56:14;20.90;54.60
4411;DHT22;2218;51.408;7.208;2022-10-22T13:58:42;20.90;54.50
4411;DHT22;2218;51.408;7.208;2022-10-22T14:01:17;20.90;54.50
4411;DHT22;2218;51.408;7.208;2022-10-22T14:03:49;20.90;54.50
4411;DHT22;2218;51.408;7.208;2022-10-22T14:06:19;20.90;54.40
4411;DHT22;2218;51.408;7.208;2022-10-22T14:08:52;20.90;54.50
4411;DHT22;2218;51.408;7.208;2022-10-22T14:11:20;20.90;54.50
4411;DHT22;2218;51.408;7.208;2022-10-22T14:13:47;20.90;54.50
4411;DHT22;2218;51.408;7.208;2022-10-22T14:16:17;20.90;54.50
4411;DHT22;2218;51.408;7.208;2022-10-22T14:18:47;20.90;54.40
4411;DHT22;2218;51.408;7.208;2022-10-22T14:21:16;20.90;54.40
4411;DHT22;2218;51.408;7.208;2022-10-22T14:23:45;20.90;54.40
4411;DHT22;2218;51.408;7.208;2022-10-22T14:26:20;20.90;54.40
4411;DHT22;2218;51.408;7.208;2022-10-22T14:28:48;20.90;54.40
4411;DHT22;2218;51.408;7.208;2022-10-22T14:31:15;20.90;54.40
4411;DHT22;2218;51.408;7.208;2022-10-22T14:33:42;20.90;54.40
4411;DHT22;2218;51.408;7.208;2022-10-22T14:36:12;20.90;54.40
4411;DHT22;2218;51.408;7.208;2022-10-22T14:38:40;20.90;54.30
4411;DHT22;2218;51.408;7.208;2022-10-22T14:41:15;20.90;54.40
4411;DHT22;2218;51.408;7.208;2022-10-22T14:43:45;20.90;54.30
4411;DHT22;2218;51.408;7.208;2022-10-22T14:46:14;20.90;54.30
4411;DHT22;2218;51.408;7.208;2022-10-22T14:48:42;20.90;54.30
4411;DHT22;2218;51.408;7.208;2022-10-22T14:51:13;20.90;54.30
4411;DHT22;2218;51.408;7.208;2022-10-22T14:53:42;20.90;54.30
4411;DHT22;2218;51.408;7.208;2022-10-22T14:56:10;20.90;54.30
4411;DHT22;2218;51.408;7.208;2022-10-22T14:58:38;20.90;54.30
4411;DHT22;2218;51.408;7.208;2022-10-22T15:01:05;20.90;54.30
4411;DHT22;2218;51.408;7.208;2022-10-22T15:03:32;20.90;54.30
4411;DHT22;2218;51.408;7.208;2022-10-22T15:05:59;20.90;54.30
4411;DHT22;2218;51.408;7.208;2022-10-22T15:08:28;20.90;54.20
4411;DHT22;2218;51.408;7.208;2022-10-22T15:10:59;20.90;54.20
4411;DHT22;2218;51.408;7.208;2022-10-22T15:13:28;20.80;54.10
4411;DHT22;2218;51.408;7.208;2022-10-22T15:15:56;20.90;54.20
4411;DHT22;2218;51.408;7.208;2022-10-22T15:18:24;20.90;54.20
4411;DHT22;2218;51.408;7.208;2022-10-22T15:20:56;20.80;54.10
4411;DHT22;2218;51.408;7.208;2022-10-22T15:23:24;20.80;54.10
4411;DHT22;2218;51.408;7.208;2022-10-22T15:25:54;20.90;54.20
4411;DHT22;2218;51.408;7.208;2022-10-22T15:28:21;20.80;54.10
4411;DHT22;2218;51.408;7.208;2022-10-22T15:30:53;20.80;54.10
4411;DHT22;2218;51.408;7.208;2022-10-22T15:33:20;20.80;54.20
4411;DHT22;2218;51.408;7.208;2022-10-22T15:35:47;20.90;54.20
4411;DHT22;2218;51.408;7.208;2022-10-22T15:38:14;20.80;54.00
4411;DHT22;2218;51.408;7.208;2022-10-22T15:40:41;20.80;54.10
4411;DHT22;2218;51.408;7.208;2022-10-22T15:43:10;20.80;54.00
4411;DHT22;2218;51.408;7.208;2022-10-22T15:45:37;20.80;53.90
4411;DHT22;2218;51.408;7.208;2022-10-22T15:48:05;20.80;54.00
4411;DHT22;2218;51.408;7.208;2022-10-22T15:50:36;20.80;54.00
4411;DHT22;2218;51.408;7.208;2022-10-22T15:53:04;20.80;54.50
4411;DHT22;2218;51.408;7.208;2022-10-22T15:55:31;20.80;54.10
4411;DHT22;2218;51.408;7.208;2022-10-22T15:57:57;20.80;54.00
4411;DHT22;2218;51.408;7.208;2022-10-22T16:00:26;20.80;54.00
4411;DHT22;2218;51.408;7.208;2022-10-22T16:02:53;20.80;54.00
4411;DHT22;2218;51.408;7.208;2022-10-22T16:05:20;20.80;54.00
4411;DHT22;2218;51.408;7.208;2022-10-22T16:07:47;20.80;54.40
4411;DHT22;2218;51.408;7.208;2022-10-22T16:10:15;20.80;54.00
4411;DHT22;2218;51.408;7.208;2022-10-22T16:12:42;20.80;54.00
4411;DHT22;2218;51.408;7.208;2022-10-22T16:15:10;20.80;54.00
4411;DHT22;2218;51.408;7.208;2022-10-22T16:17:38;20.80;53.90
4411;DHT22;2218;51.408;7.208;2022-10-22T16:20:05;20.80;53.90
4411;DHT22;2218;51.408;7.208;2022-10-22T16:22:33;20.80;53.90
4411;DHT22;2218;51.408;7.208;2022-10-22T16:25:00;20.80;53.90
4411;DHT22;2218;51.408;7.208;2022-10-22T16:27:27;20.80;53.90
4411;DHT22;2218;51.408;7.208;2022-10-22T16:29:54;20.80;53.90
4411;DHT22;2218;51.408;7.208;2022-10-22T16:32:20;20.80;53.90
4411;DHT22;2218;51.408;7.208;2022-10-22T16:34:49;20.80;53.90